Maran Poseidon — SVAV3 — position and weather

sailwx.info

Track history (hours):
 
Tides and Currents Weather Stations Pressure Air Temp Water Temp Dewpoint Dewpoint Depression Visibility Wind Speed Wind Dir Waves Ship Positions

Maran Poseidon

Last reported at 2014-Oct-08 23:34 UTC. Time now 2014-Dec-22 06:22 UTC.
Position N 24°33' W 119°22'.
Warning: this ship's position is months out of date.

Length 274 m; draft 9.6 m.

Type: Tanker. MMSI: 240959000.

Date/timePositionNaut miles runAvg speedWind from/ knotsBaromVisibWave heightAir tempDewpointWater temp
2014-Oct-08 23:34N 24°33' W 119°22'1515.2
2014-Oct-08 22:34N 24°47' W 119°28'15214.8
2014-Oct-08 12:18N 27°04' W 120°40'1514.7
2014-Oct-08 11:18N 27°17' W 120°48'1814.7
2014-Oct-08 10:04N 27°33' W 120°58'814.9
2014-Oct-08 09:34N 27°40' W 121°02'1514.7
2014-Oct-08 08:33N 27°53' W 121°10'1514.7
2014-Oct-08 07:33N 28°06' W 121°18'1514.5
2014-Oct-08 06:33N 28°18' W 121°25'1414.5
2014-Oct-08 05:33N 28°31' W 121°33'1414.5
2014-Oct-08 04:34N 28°44' W 121°41'1414.4
2014-Oct-08 03:34N 28°57' W 121°49'1514.7
2014-Oct-08 02:33N 29°10' W 121°57'1514.6
2014-Oct-08 01:34N 29°23' W 122°04'1514.8
2014-Oct-08 00:34N 29°36' W 122°12'1514.8
2014-Oct-07 23:34N 29°49' W 122°20'1514.7
2014-Oct-07 22:34N 30°02' W 122°28'1414.5
2014-Oct-07 21:34N 30°14' W 122°36'1414.2
2014-Oct-07 20:33N 30°27' W 122°44'1414.1
2014-Oct-07 19:33N 30°39' W 122°52'1414.3
2014-Oct-07 18:33N 30°52' W 122°60'1413.9
2014-Oct-07 17:34N 31°04' W 123°08'1514.5
2014-Oct-07 16:33N 31°17' W 123°16'1313.3
2014-Oct-07 15:33N 31°29' W 123°23'1414.2
2014-Oct-07 14:33N 31°41' W 123°31'1414.5
2014-Oct-07 13:34N 31°54' W 123°39'1414.4
2014-Oct-07 12:33N 32°07' W 123°47'1414.2
2014-Oct-07 11:34N 32°19' W 123°55'1414.3
2014-Oct-07 10:33N 32°32' W 124°02'1414.3
2014-Oct-07 09:34N 32°45' W 124°09'1414.3
2014-Oct-07 08:33N 32°58' W 124°16'1414.3
2014-Oct-07 07:33N 33°12' W 124°20'1414.5
2014-Oct-07 06:33N 33°26' W 124°24'1414.5
2014-Oct-07 05:34N 33°40' W 124°28'1514.5
2014-Oct-07 04:33N 33°53' W 124°36'1414.4
2014-Oct-07 03:34N 34°06' W 124°44'1414.3
2014-Oct-07 02:33N 34°20' W 124°49'1414.3
2014-Oct-07 01:33N 34°33' W 124°55'1514.6
2014-Oct-07 00:33N 34°47' W 125°00'1514.7
2014-Oct-06 23:33N 35°01' W 125°05'1514.6
2014-Oct-06 22:33N 35°15' W 125°10'1514.6
2014-Oct-06 21:33N 35°29' W 125°16'1514.8
2014-Oct-06 20:33N 35°43' W 125°22'1514.8
2014-Oct-06 19:33N 35°57' W 125°28'1313.3
2014-Oct-06 18:33N 36°10' W 125°29'1614.6
2014-Oct-06 17:26N 36°19' W 125°12'1315.0
2014-Oct-06 16:33N 36°27' W 124°58'1515.2
2014-Oct-06 15:33N 36°35' W 124°42'1515.1
2014-Oct-06 14:33N 36°43' W 124°27'1514.7
2014-Oct-06 13:33N 36°51' W 124°12'1414.4
2014-Oct-06 12:34N 36°59' W 123°57'1514.6
2014-Oct-06 11:33N 37°07' W 123°41'1414.2
2014-Oct-06 10:33N 37°15' W 123°27'1414.2
2014-Oct-06 09:33N 37°26' W 123°14'1414.0
2014-Oct-06 08:34N 37°35' W 123°02'1414.1
2014-Oct-06 07:33N 37°43' W 122°46'1111.4
2014-Oct-06 06:33N 37°47' W 122°33'9 9.4
2014-Oct-06 05:33N 37°47' W 122°21'1 1.2
2014-Oct-06 04:33N 37°45' W 122°21'0 0.0
2014-Oct-06 03:33N 37°45' W 122°21'0 0.0
2014-Oct-06 02:33N 37°45' W 122°21'0 0.0
2014-Oct-06 01:33N 37°45' W 122°21'0 0.1
2014-Oct-06 00:33N 37°45' W 122°21'0 0.2
2014-Oct-05 23:33N 37°46' W 122°21'0 0.1
2014-Oct-05 22:33N 37°46' W 122°21'0 0.0
2014-Oct-05 21:33N 37°46' W 122°21'0 0.0
2014-Oct-05 20:33N 37°46' W 122°21'6 6.2
2014-Oct-05 19:33N 37°51' W 122°24'1110.8
2014-Oct-05 18:33N 38°02' W 122°22'8 7.6
2014-Oct-05 17:33N 38°04' W 122°13'4 4.4
2014-Oct-05 16:33N 38°02' W 122°07'0 0.0
2014-Oct-05 15:29N 38°02' W 122°07'0 0.0
2014-Oct-05 14:29N 38°02' W 122°07'0 0.0
2014-Oct-05 13:29N 38°02' W 122°07'0 0.0
2014-Oct-05 12:23N 38°02' W 122°07'0 0.0
2014-Oct-05 11:29N 38°02' W 122°07'0 0.0
2014-Oct-05 10:29N 38°02' W 122°07'0 0.0
2014-Oct-05 09:29N 38°02' W 122°07'0 0.0
2014-Oct-05 08:29N 38°02' W 122°07'0 0.0
2014-Oct-05 07:29N 38°02' W 122°07'0 0.0
2014-Oct-05 06:29N 38°02' W 122°07'0 0.0
2014-Oct-05 05:29N 38°02' W 122°07'0 0.0
2014-Oct-05 04:29N 38°02' W 122°07'0 0.0
2014-Oct-05 03:29N 38°02' W 122°07'0 0.0
2014-Oct-05 02:29N 38°02' W 122°07'0 0.0
2014-Oct-05 01:29N 38°02' W 122°07'0 0.0
2014-Oct-05 00:29N 38°02' W 122°07'0 0.0
2014-Oct-04 23:29N 38°02' W 122°07'0 0.0
2014-Oct-04 20:05N 38°02' W 122°07'0 0.0
2014-Oct-04 18:11N 38°02' W 122°07'0 0.0
2014-Oct-04 17:29N 38°02' W 122°07'0 0.0
2014-Oct-04 16:29N 38°02' W 122°07'0 0.0
2014-Oct-04 15:29N 38°02' W 122°07'0 0.0
2014-Oct-04 14:29N 38°02' W 122°07'0 0.0
2014-Oct-04 13:29N 38°02' W 122°07'0 0.0
2014-Oct-04 12:29N 38°02' W 122°07'0 0.0
2014-Oct-04 11:29N 38°02' W 122°07'0 0.0
2014-Oct-04 10:29N 38°02' W 122°07'0 0.0
2014-Oct-04 09:17N 38°02' W 122°07'0 0.0
2014-Oct-04 08:29N 38°02' W 122°07'0 0.0
2014-Oct-04 07:23N 38°02' W 122°07'0 0.0
2014-Oct-04 06:29N 38°02' W 122°07'0 0.0
2014-Oct-04 05:29N 38°02' W 122°07'0 0.0
2014-Oct-04 04:29N 38°02' W 122°07'0 0.0
2014-Oct-04 03:29N 38°02' W 122°07'0 0.0
2014-Oct-04 02:17N 38°02' W 122°07'0 0.0
2014-Oct-04 01:29N 38°02' W 122°07'0 0.0
2014-Oct-04 00:29N 38°02' W 122°07'0 0.0
2014-Oct-03 23:29N 38°02' W 122°07'0 0.0
2014-Oct-03 22:29N 38°02' W 122°07'0 0.0
2014-Oct-03 21:29N 38°02' W 122°07'0 0.0
2014-Oct-03 18:33N 38°02' W 122°07'3 2.7
2014-Oct-03 17:33N 38°03' W 122°11'8 8.0
2014-Oct-03 16:33N 38°03' W 122°21'7 7.5
2014-Oct-03 15:33N 37°57' W 122°27'7 7.0
2014-Oct-03 14:33N 37°50' W 122°28'1211.8
2014-Oct-03 13:33N 37°44' W 122°41'1010.1
2014-Oct-03 12:33N 37°38' W 122°51'1111.0
2014-Oct-03 11:33N 37°32' W 123°03'1111.1
2014-Oct-03 10:33N 37°24' W 123°13'10 9.7
2014-Oct-03 09:33N 37°15' W 123°12'1111.3
2014-Oct-03 08:33N 37°04' W 123°16'1413.7
2014-Oct-03 07:32N 36°51' W 123°22'4 3.3
2014-Oct-03 06:24N 36°47' W 123°23'1 0.9
2014-Oct-03 05:33N 36°48' W 123°23'1 0.9
2014-Oct-03 04:33N 36°49' W 123°23'1 0.9
2014-Oct-03 03:33N 36°50' W 123°22'1 1.0
2014-Oct-03 02:32N 36°50' W 123°22'1 1.2
2014-Oct-03 01:33N 36°51' W 123°20'1 1.4
2014-Oct-03 00:33N 36°52' W 123°19'1 1.5
2014-Oct-02 23:33N 36°53' W 123°18'1 1.4
2014-Oct-02 22:33N 36°54' W 123°17'1 1.4
2014-Oct-02 21:33N 36°56' W 123°16'1 1.5
2014-Oct-02 20:33N 36°57' W 123°16'1 1.5
2014-Oct-02 19:33N 36°59' W 123°15'1 1.4
2014-Oct-02 18:33N 36°60' W 123°15'1 1.3
2014-Oct-02 17:33N 37°01' W 123°15'1 1.3
2014-Oct-02 16:33N 37°03' W 123°15'1 1.1
2014-Oct-02 15:33N 37°04' W 123°15'1 1.1
2014-Oct-02 14:33N 37°05' W 123°14'1 1.1
2014-Oct-02 13:33N 37°06' W 123°14'1 1.1
2014-Oct-02 12:33N 37°07' W 123°14'1 1.0
2014-Oct-02 11:33N 37°08' W 123°14'1 0.9
2014-Oct-02 10:33N 37°09' W 123°14'1 1.1
2014-Oct-02 09:33N 37°10' W 123°14'1 1.3
2014-Oct-02 08:33N 37°11' W 123°13'1 1.4
2014-Oct-02 07:33N 37°12' W 123°13'1 1.5
2014-Oct-02 06:33N 37°14' W 123°12'2 1.5
2014-Oct-02 05:33N 37°14' W 123°10'10 9.8
2014-Oct-02 04:33N 37°05' W 123°06'1313.0
2014-Oct-02 03:33N 36°52' W 123°03'1313.3
2014-Oct-02 02:33N 36°39' W 122°59'1313.1
2014-Oct-02 01:33N 36°26' W 122°56'1312.8
2014-Oct-02 00:33N 36°14' W 122°53'1312.6
2014-Oct-01 23:33N 36°01' W 122°49'1312.7
2014-Oct-01 22:33N 35°49' W 122°45'1313.4
2014-Oct-01 21:33N 35°36' W 122°40'1413.7
2014-Oct-01 20:33N 35°23' W 122°34'1313.5
2014-Oct-01 19:33N 35°11' W 122°28'1212.1
2014-Oct-01 18:33N 35°00' W 122°21'10 9.7
2014-Oct-01 17:33N 34°52' W 122°15'1313.1
2014-Oct-01 16:33N 34°41' W 122°06'1312.8
2014-Oct-01 15:33N 34°31' W 121°56'1312.5
2014-Oct-01 14:33N 34°21' W 121°47'1313.0
2014-Oct-01 13:33N 34°11' W 121°37'1312.8
2014-Oct-01 12:33N 34°01' W 121°27'1313.0
2014-Oct-01 11:33N 33°51' W 121°17'1613.1
2014-Oct-01 10:19N 33°38' W 121°05'1013.3
2014-Oct-01 09:33N 33°31' W 120°57'1413.3
2014-Oct-01 08:30N 33°20' W 120°47'1413.5
2014-Oct-01 07:29N 33°09' W 120°37'1213.3
2014-Oct-01 06:33N 32°60' W 120°27'1313.0
2014-Oct-01 05:33N 32°50' W 120°17'1313.1
2014-Oct-01 04:33N 32°39' W 120°08'2612.6
2014-Oct-01 02:29N 32°19' W 119°48'2412.6
2014-Oct-01 00:33N 31°60' W 119°30'1813.0
2014-Sep-30 23:11N 31°46' W 119°17'813.0
2014-Sep-30 22:32N 31°40' W 119°11'1313.2
2014-Sep-30 21:33N 31°30' W 119°01'1413.3
2014-Sep-30 20:32N 31°19' W 118°51'1313.5
2014-Sep-30 19:33N 31°09' W 118°41'4 3.5
2014-Sep-30 18:33N 31°07' W 118°37'3 2.4
2014-Sep-30 17:25N 31°10' W 118°39'1 1.6
2014-Sep-30 16:33N 31°11' W 118°40'2 2.0
2014-Sep-30 15:33N 31°12' W 118°42'2 2.0
2014-Sep-30 14:33N 31°13' W 118°44'4 1.8
2014-Sep-30 12:33N 31°15' W 118°47'4 2.1
2014-Sep-30 10:33N 31°17' W 118°51'2 2.1
2014-Sep-30 09:29N 31°18' W 118°54'2 2.1
2014-Sep-30 08:33N 31°20' W 118°55'2 2.1
2014-Sep-30 07:32N 31°21' W 118°57'2 2.1
2014-Sep-30 06:31N 31°22' W 118°59'2 1.8
2014-Sep-30 05:33N 31°24' W 119°01'2 2.0
2014-Sep-30 04:33N 31°25' W 119°02'2 2.0
2014-Sep-30 03:33N 31°27' W 119°04'2 1.9
2014-Sep-30 02:33N 31°28' W 119°05'2 1.5
2014-Sep-30 01:32N 31°29' W 119°06'2 2.2
2014-Sep-30 00:33N 31°31' W 119°08'3 2.6
2014-Sep-29 23:33N 31°32' W 119°10'5 4.5
2014-Sep-29 22:33N 31°36' W 119°14'5 5.5
2014-Sep-29 21:33N 31°40' W 119°18'2 1.3
2014-Sep-29 20:17N 31°41' W 119°20'6 4.7
2014-Sep-29 19:07N 31°41' W 119°13'2 2.6
2014-Sep-29 18:10N 31°43' W 119°14'1 2.1
2014-Sep-29 17:29N 31°44' W 119°15'3 3.6
2014-Sep-29 16:33N 31°46' W 119°19'3 3.1
2014-Sep-29 15:33N 31°48' W 119°22'8 7.2
2014-Sep-29 14:27N 31°55' W 119°26'6414.6
2014-Sep-29 10:04N 31°60' W 120°41'  
Track history (hours):
 
Tides and Currents Weather Stations Pressure Air Temp Water Temp Dewpoint Dewpoint Depression Visibility Wind Speed Wind Dir Waves Ship Positions

Maran Poseidon

Last reported at 2014-Oct-08 23:34 UTC. Time now 2014-Dec-22 06:22 UTC.
Position N 24°33' W 119°22'.
Warning: this ship's position is months out of date.

Length 274 m; draft 9.6 m.

Type: Tanker. MMSI: 240959000.

Date/timePositionNaut miles runAvg speedWind from/ knotsBaromVisibWave heightAir tempDewpointWater temp
2014-Oct-08 23:34N 24°33' W 119°22'1515.2
2014-Oct-08 22:34N 24°47' W 119°28'15214.8
2014-Oct-08 12:18N 27°04' W 120°40'1514.7
2014-Oct-08 11:18N 27°17' W 120°48'1814.7
2014-Oct-08 10:04N 27°33' W 120°58'814.9
2014-Oct-08 09:34N 27°40' W 121°02'1514.7
2014-Oct-08 08:33N 27°53' W 121°10'1514.7
2014-Oct-08 07:33N 28°06' W 121°18'1514.5
2014-Oct-08 06:33N 28°18' W 121°25'1414.5
2014-Oct-08 05:33N 28°31' W 121°33'1414.5
2014-Oct-08 04:34N 28°44' W 121°41'1414.4
2014-Oct-08 03:34N 28°57' W 121°49'1514.7
2014-Oct-08 02:33N 29°10' W 121°57'1514.6
2014-Oct-08 01:34N 29°23' W 122°04'1514.8
2014-Oct-08 00:34N 29°36' W 122°12'1514.8
2014-Oct-07 23:34N 29°49' W 122°20'1514.7
2014-Oct-07 22:34N 30°02' W 122°28'1414.5
2014-Oct-07 21:34N 30°14' W 122°36'1414.2
2014-Oct-07 20:33N 30°27' W 122°44'1414.1
2014-Oct-07 19:33N 30°39' W 122°52'1414.3
2014-Oct-07 18:33N 30°52' W 122°60'1413.9
2014-Oct-07 17:34N 31°04' W 123°08'1514.5
2014-Oct-07 16:33N 31°17' W 123°16'1313.3
2014-Oct-07 15:33N 31°29' W 123°23'1414.2
2014-Oct-07 14:33N 31°41' W 123°31'1414.5
2014-Oct-07 13:34N 31°54' W 123°39'1414.4
2014-Oct-07 12:33N 32°07' W 123°47'1414.2
2014-Oct-07 11:34N 32°19' W 123°55'1414.3
2014-Oct-07 10:33N 32°32' W 124°02'1414.3
2014-Oct-07 09:34N 32°45' W 124°09'1414.3
2014-Oct-07 08:33N 32°58' W 124°16'1414.3
2014-Oct-07 07:33N 33°12' W 124°20'1414.5
2014-Oct-07 06:33N 33°26' W 124°24'1414.5
2014-Oct-07 05:34N 33°40' W 124°28'1514.5
2014-Oct-07 04:33N 33°53' W 124°36'1414.4
2014-Oct-07 03:34N 34°06' W 124°44'1414.3
2014-Oct-07 02:33N 34°20' W 124°49'1414.3
2014-Oct-07 01:33N 34°33' W 124°55'1514.6
2014-Oct-07 00:33N 34°47' W 125°00'1514.7
2014-Oct-06 23:33N 35°01' W 125°05'1514.6
2014-Oct-06 22:33N 35°15' W 125°10'1514.6
2014-Oct-06 21:33N 35°29' W 125°16'1514.8
2014-Oct-06 20:33N 35°43' W 125°22'1514.8
2014-Oct-06 19:33N 35°57' W 125°28'1313.3
2014-Oct-06 18:33N 36°10' W 125°29'1614.6
2014-Oct-06 17:26N 36°19' W 125°12'1315.0
2014-Oct-06 16:33N 36°27' W 124°58'1515.2
2014-Oct-06 15:33N 36°35' W 124°42'1515.1
2014-Oct-06 14:33N 36°43' W 124°27'1514.7
2014-Oct-06 13:33N 36°51' W 124°12'1414.4
2014-Oct-06 12:34N 36°59' W 123°57'1514.6
2014-Oct-06 11:33N 37°07' W 123°41'1414.2
2014-Oct-06 10:33N 37°15' W 123°27'1414.2
2014-Oct-06 09:33N 37°26' W 123°14'1414.0
2014-Oct-06 08:34N 37°35' W 123°02'1414.1
2014-Oct-06 07:33N 37°43' W 122°46'1111.4
2014-Oct-06 06:33N 37°47' W 122°33'9 9.4
2014-Oct-06 05:33N 37°47' W 122°21'1 1.2
2014-Oct-06 04:33N 37°45' W 122°21'0 0.0
2014-Oct-06 03:33N 37°45' W 122°21'0 0.0
2014-Oct-06 02:33N 37°45' W 122°21'0 0.0
2014-Oct-06 01:33N 37°45' W 122°21'0 0.1
2014-Oct-06 00:33N 37°45' W 122°21'0 0.2
2014-Oct-05 23:33N 37°46' W 122°21'0 0.1
2014-Oct-05 22:33N 37°46' W 122°21'0 0.0
2014-Oct-05 21:33N 37°46' W 122°21'0 0.0
2014-Oct-05 20:33N 37°46' W 122°21'6 6.2
2014-Oct-05 19:33N 37°51' W 122°24'1110.8
2014-Oct-05 18:33N 38°02' W 122°22'8 7.6
2014-Oct-05 17:33N 38°04' W 122°13'4 4.4
2014-Oct-05 16:33N 38°02' W 122°07'0 0.0
2014-Oct-05 15:29N 38°02' W 122°07'0 0.0
2014-Oct-05 14:29N 38°02' W 122°07'0 0.0
2014-Oct-05 13:29N 38°02' W 122°07'0 0.0
2014-Oct-05 12:23N 38°02' W 122°07'0 0.0
2014-Oct-05 11:29N 38°02' W 122°07'0 0.0
2014-Oct-05 10:29N 38°02' W 122°07'0 0.0
2014-Oct-05 09:29N 38°02' W 122°07'0 0.0
2014-Oct-05 08:29N 38°02' W 122°07'0 0.0
2014-Oct-05 07:29N 38°02' W 122°07'0 0.0
2014-Oct-05 06:29N 38°02' W 122°07'0 0.0
2014-Oct-05 05:29N 38°02' W 122°07'0 0.0
2014-Oct-05 04:29N 38°02' W 122°07'0 0.0
2014-Oct-05 03:29N 38°02' W 122°07'0 0.0
2014-Oct-05 02:29N 38°02' W 122°07'0 0.0
2014-Oct-05 01:29N 38°02' W 122°07'0 0.0
2014-Oct-05 00:29N 38°02' W 122°07'0 0.0
2014-Oct-04 23:29N 38°02' W 122°07'0 0.0
2014-Oct-04 20:05N 38°02' W 122°07'0 0.0
2014-Oct-04 18:11N 38°02' W 122°07'0 0.0
2014-Oct-04 17:29N 38°02' W 122°07'0 0.0
2014-Oct-04 16:29N 38°02' W 122°07'0 0.0
2014-Oct-04 15:29N 38°02' W 122°07'0 0.0
2014-Oct-04 14:29N 38°02' W 122°07'0 0.0
2014-Oct-04 13:29N 38°02' W 122°07'0 0.0
2014-Oct-04 12:29N 38°02' W 122°07'0 0.0
2014-Oct-04 11:29N 38°02' W 122°07'0 0.0
2014-Oct-04 10:29N 38°02' W 122°07'0 0.0
2014-Oct-04 09:17N 38°02' W 122°07'0 0.0
2014-Oct-04 08:29N 38°02' W 122°07'0 0.0
2014-Oct-04 07:23N 38°02' W 122°07'0 0.0
2014-Oct-04 06:29N 38°02' W 122°07'0 0.0
2014-Oct-04 05:29N 38°02' W 122°07'0 0.0
2014-Oct-04 04:29N 38°02' W 122°07'0 0.0
2014-Oct-04 03:29N 38°02' W 122°07'0 0.0
2014-Oct-04 02:17N 38°02' W 122°07'0 0.0
2014-Oct-04 01:29N 38°02' W 122°07'0 0.0
2014-Oct-04 00:29N 38°02' W 122°07'0 0.0
2014-Oct-03 23:29N 38°02' W 122°07'0 0.0
2014-Oct-03 22:29N 38°02' W 122°07'0 0.0
2014-Oct-03 21:29N 38°02' W 122°07'0 0.0
2014-Oct-03 18:33N 38°02' W 122°07'3 2.7
2014-Oct-03 17:33N 38°03' W 122°11'8 8.0
2014-Oct-03 16:33N 38°03' W 122°21'7 7.5
2014-Oct-03 15:33N 37°57' W 122°27'7 7.0
2014-Oct-03 14:33N 37°50' W 122°28'1211.8
2014-Oct-03 13:33N 37°44' W 122°41'1010.1
2014-Oct-03 12:33N 37°38' W 122°51'1111.0
2014-Oct-03 11:33N 37°32' W 123°03'1111.1
2014-Oct-03 10:33N 37°24' W 123°13'10 9.7
2014-Oct-03 09:33N 37°15' W 123°12'1111.3
2014-Oct-03 08:33N 37°04' W 123°16'1413.7
2014-Oct-03 07:32N 36°51' W 123°22'4 3.3
2014-Oct-03 06:24N 36°47' W 123°23'1 0.9
2014-Oct-03 05:33N 36°48' W 123°23'1 0.9
2014-Oct-03 04:33N 36°49' W 123°23'1 0.9
2014-Oct-03 03:33N 36°50' W 123°22'1 1.0
2014-Oct-03 02:32N 36°50' W 123°22'1 1.2
2014-Oct-03 01:33N 36°51' W 123°20'1 1.4
2014-Oct-03 00:33N 36°52' W 123°19'1 1.5
2014-Oct-02 23:33N 36°53' W 123°18'1 1.4
2014-Oct-02 22:33N 36°54' W 123°17'1 1.4
2014-Oct-02 21:33N 36°56' W 123°16'1 1.5
2014-Oct-02 20:33N 36°57' W 123°16'1 1.5
2014-Oct-02 19:33N 36°59' W 123°15'1 1.4
2014-Oct-02 18:33N 36°60' W 123°15'1 1.3
2014-Oct-02 17:33N 37°01' W 123°15'1 1.3
2014-Oct-02 16:33N 37°03' W 123°15'1 1.1
2014-Oct-02 15:33N 37°04' W 123°15'1 1.1
2014-Oct-02 14:33N 37°05' W 123°14'1 1.1
2014-Oct-02 13:33N 37°06' W 123°14'1 1.1
2014-Oct-02 12:33N 37°07' W 123°14'1 1.0
2014-Oct-02 11:33N 37°08' W 123°14'1 0.9
2014-Oct-02 10:33N 37°09' W 123°14'1 1.1
2014-Oct-02 09:33N 37°10' W 123°14'1 1.3
2014-Oct-02 08:33N 37°11' W 123°13'1 1.4
2014-Oct-02 07:33N 37°12' W 123°13'1 1.5
2014-Oct-02 06:33N 37°14' W 123°12'2 1.5
2014-Oct-02 05:33N 37°14' W 123°10'10 9.8
2014-Oct-02 04:33N 37°05' W 123°06'1313.0
2014-Oct-02 03:33N 36°52' W 123°03'1313.3
2014-Oct-02 02:33N 36°39' W 122°59'1313.1
2014-Oct-02 01:33N 36°26' W 122°56'1312.8
2014-Oct-02 00:33N 36°14' W 122°53'1312.6
2014-Oct-01 23:33N 36°01' W 122°49'1312.7
2014-Oct-01 22:33N 35°49' W 122°45'1313.4
2014-Oct-01 21:33N 35°36' W 122°40'1413.7
2014-Oct-01 20:33N 35°23' W 122°34'1313.5
2014-Oct-01 19:33N 35°11' W 122°28'1212.1
2014-Oct-01 18:33N 35°00' W 122°21'10 9.7
2014-Oct-01 17:33N 34°52' W 122°15'1313.1
2014-Oct-01 16:33N 34°41' W 122°06'1312.8
2014-Oct-01 15:33N 34°31' W 121°56'1312.5
2014-Oct-01 14:33N 34°21' W 121°47'1313.0
2014-Oct-01 13:33N 34°11' W 121°37'1312.8
2014-Oct-01 12:33N 34°01' W 121°27'1313.0
2014-Oct-01 11:33N 33°51' W 121°17'1613.1
2014-Oct-01 10:19N 33°38' W 121°05'1013.3
2014-Oct-01 09:33N 33°31' W 120°57'1413.3
2014-Oct-01 08:30N 33°20' W 120°47'1413.5
2014-Oct-01 07:29N 33°09' W 120°37'1213.3
2014-Oct-01 06:33N 32°60' W 120°27'1313.0
2014-Oct-01 05:33N 32°50' W 120°17'1313.1
2014-Oct-01 04:33N 32°39' W 120°08'2612.6
2014-Oct-01 02:29N 32°19' W 119°48'2412.6
2014-Oct-01 00:33N 31°60' W 119°30'1813.0
2014-Sep-30 23:11N 31°46' W 119°17'813.0
2014-Sep-30 22:32N 31°40' W 119°11'1313.2
2014-Sep-30 21:33N 31°30' W 119°01'1413.3
2014-Sep-30 20:32N 31°19' W 118°51'1313.5
2014-Sep-30 19:33N 31°09' W 118°41'4 3.5
2014-Sep-30 18:33N 31°07' W 118°37'3 2.4
2014-Sep-30 17:25N 31°10' W 118°39'1 1.6
2014-Sep-30 16:33N 31°11' W 118°40'2 2.0
2014-Sep-30 15:33N 31°12' W 118°42'2 2.0
2014-Sep-30 14:33N 31°13' W 118°44'4 1.8
2014-Sep-30 12:33N 31°15' W 118°47'4 2.1
2014-Sep-30 10:33N 31°17' W 118°51'2 2.1
2014-Sep-30 09:29N 31°18' W 118°54'2 2.1
2014-Sep-30 08:33N 31°20' W 118°55'2 2.1
2014-Sep-30 07:32N 31°21' W 118°57'2 2.1
2014-Sep-30 06:31N 31°22' W 118°59'2 1.8
2014-Sep-30 05:33N 31°24' W 119°01'2 2.0
2014-Sep-30 04:33N 31°25' W 119°02'2 2.0
2014-Sep-30 03:33N 31°27' W 119°04'2 1.9
2014-Sep-30 02:33N 31°28' W 119°05'2 1.5
2014-Sep-30 01:32N 31°29' W 119°06'2 2.2
2014-Sep-30 00:33N 31°31' W 119°08'3 2.6
2014-Sep-29 23:33N 31°32' W 119°10'5 4.5
2014-Sep-29 22:33N 31°36' W 119°14'5 5.5
2014-Sep-29 21:33N 31°40' W 119°18'2 1.3
2014-Sep-29 20:17N 31°41' W 119°20'6 4.7
2014-Sep-29 19:07N 31°41' W 119°13'2 2.6
2014-Sep-29 18:10N 31°43' W 119°14'1 2.1
2014-Sep-29 17:29N 31°44' W 119°15'3 3.6
2014-Sep-29 16:33N 31°46' W 119°19'3 3.1
2014-Sep-29 15:33N 31°48' W 119°22'8 7.2
2014-Sep-29 14:27N 31°55' W 119°26'6414.6
2014-Sep-29 10:04N 31°60' W 120°41'  

Dump ship's entire track history